< < Back
Terminal Aerodrome Forecast


Current Version              Previous Versions:   1  2  3  4  5  6  7  8  9  

Terminal Aerodrome Forecast

553
FTUS42 KILM 011120
TAFILM
TAF
KILM 011120Z 0112/0212 19010KT P6SM VCSH SCT035 BKN100
     FM011800 18010KT P6SM VCTS SCT040CB BKN150
     FM020000 21006KT P6SM BKN250=

Latest METAR

584
SAUS70 KWBC 011800 RRX
MTRILM
METAR KILM 011753Z AUTO 17008KT 10SM SCT020 28/23 A3001 RMK AO2 SLP162
60020 T02780228 10283 20228 56009


USA.gov is the U.S. government's official web portal to all federal, state and local government web resources and services.